Time;durP1;ratioP1;P1;durP2;ratioP2;P2;SDS_P1;SDS_P2;PMS_P1;PMS_P2;Temp;Humidity;BMP_temperature;BMP_pressure;BME280_temperature;BME280_humidity;BME280_pressure;Samples;Min_cycle;Max_cycle;Signal;HPM_P1;HPM_P2
2022/09/15 05:02:23;;;;;;;2.30;0.80;;;18.20;99.90;;;;;;6155037;23;20036;-76
2022/09/15 05:04:50;;;;;;;1.98;0.77;;;18.20;99.90;;;;;;6168804;23;20005;-76
2022/09/15 05:07:17;;;;;;;3.60;0.77;;;18.20;99.90;;;;;;6194953;23;20012;-75
2022/09/15 05:09:42;;;;;;;3.58;0.70;;;18.20;99.90;;;;;;6194610;23;20008;-73
2022/09/15 05:12:08;;;;;;;2.20;0.68;;;18.30;99.90;;;;;;6196298;23;20005;-75
2022/09/15 05:14:34;;;;;;;3.20;0.70;;;18.30;99.90;;;;;;6194909;23;20008;-75
2022/09/15 05:17:00;;;;;;;4.25;1.10;;;18.30;99.90;;;;;;6169324;23;20013;-75
2022/09/15 05:19:26;;;;;;;2.05;0.70;;;18.30;99.90;;;;;;6169314;23;20218;-74
2022/09/15 05:21:51;;;;;;;2.20;0.93;;;18.40;99.90;;;;;;6195023;23;20009;-77
2022/09/15 05:24:17;;;;;;;2.00;0.75;;;18.40;99.90;;;;;;6143864;23;20286;-77
2022/09/15 05:26:43;;;;;;;2.17;0.57;;;18.40;99.90;;;;;;6194099;23;20009;-77
2022/09/15 05:29:08;;;;;;;2.20;0.80;;;18.50;99.90;;;;;;6195143;23;20008;-75
2022/09/15 05:31:34;;;;;;;1.65;0.60;;;18.50;99.90;;;;;;6194387;23;20008;-76
2022/09/15 05:34:03;;;;;;;2.05;0.70;;;18.60;99.90;;;;;;6195164;23;20041;-74
2022/09/15 05:36:29;;;;;;;1.40;0.65;;;18.60;99.90;;;;;;6194840;23;20051;-76
2022/09/15 05:38:55;;;;;;;1.48;0.60;;;18.60;99.90;;;;;;6194464;23;20012;-75
2022/09/15 05:41:22;;;;;;;3.80;0.90;;;18.70;99.90;;;;;;6195519;23;20001;-76
2022/09/15 05:43:49;;;;;;;4.10;0.80;;;18.70;99.90;;;;;;6193878;23;19993;-75
2022/09/15 05:46:17;;;;;;;1.88;0.70;;;18.70;99.90;;;;;;6195427;23;20286;-75
2022/09/15 05:48:44;;;;;;;2.30;0.60;;;18.70;99.90;;;;;;6195030;23;20057;-75
2022/09/15 05:51:10;;;;;;;5.93;0.85;;;18.80;99.90;;;;;;6195436;23;20104;-77
2022/09/15 05:53:36;;;;;;;1.98;0.63;;;18.80;99.90;;;;;;6195146;23;19993;-75
2022/09/15 05:56:04;;;;;;;2.17;0.63;;;18.80;99.90;;;;;;6194508;23;20031;-75
2022/09/15 05:58:31;;;;;;;3.05;0.80;;;18.80;99.90;;;;;;6194511;23;20071;-78
2022/09/15 06:01:03;;;;;;;2.05;0.60;;;18.80;99.90;;;;;;6194428;23;20005;-76
2022/09/15 06:03:29;;;;;;;2.53;0.60;;;18.80;99.90;;;;;;6223390;23;20011;-74
2022/09/15 06:05:59;;;;;;;2.10;0.52;;;18.90;99.90;;;;;;6223915;23;20055;-76
2022/09/15 06:08:28;;;;;;;2.20;0.60;;;18.90;99.90;;;;;;6198769;23;20005;-76
2022/09/15 06:10:59;;;;;;;3.58;0.90;;;19.00;99.90;;;;;;6198114;23;20008;-76
2022/09/15 06:13:25;;;;;;;2.10;0.68;;;19.00;99.90;;;;;;6222853;23;20056;-76
2022/09/15 06:15:50;;;;;;;1.70;0.57;;;19.00;99.90;;;;;;6222307;23;20008;-76
2022/09/15 06:18:16;;;;;;;1.95;0.50;;;19.10;99.90;;;;;;6196202;23;20005;-76
2022/09/15 06:20:41;;;;;;;2.75;0.50;;;19.10;99.90;;;;;;6222337;23;20011;-76
2022/09/15 06:23:07;;;;;;;3.42;0.60;;;19.30;99.90;;;;;;6223808;23;20004;-76
2022/09/15 06:25:33;;;;;;;2.05;0.45;;;19.30;99.90;;;;;;6224034;23;20001;-76
2022/09/15 06:27:59;;;;;;;2.42;0.60;;;19.30;99.90;;;;;;6222723;23;20070;-75
2022/09/15 06:30:25;;;;;;;1.63;0.43;;;19.30;99.90;;;;;;6222774;23;20121;-76
2022/09/15 06:32:51;;;;;;;2.00;0.50;;;19.40;99.90;;;;;;6222202;23;20023;-76
2022/09/15 06:35:16;;;;;;;1.90;0.50;;;19.30;99.90;;;;;;6196150;23;20000;-75
2022/09/15 06:37:42;;;;;;;2.40;0.80;;;19.20;99.90;;;;;;6222175;23;20005;-75
2022/09/15 06:40:08;;;;;;;2.17;0.60;;;19.00;99.90;;;;;;6223168;23;20000;-75
2022/09/15 06:42:34;;;;;;;1.90;0.50;;;18.60;99.90;;;;;;6222992;23;20007;-76
2022/09/15 06:45:00;;;;;;;1.30;0.50;;;18.40;99.90;;;;;;6222296;23;20001;-77
2022/09/15 06:47:32;;;;;;;2.60;0.50;;;18.20;99.90;;;;;;6222811;23;20004;-76
2022/09/15 06:49:58;;;;;;;3.72;0.98;;;18.10;99.90;;;;;;6222425;23;20019;-76
2022/09/15 06:52:24;;;;;;;2.35;0.70;;;17.90;99.90;;;;;;6222669;23;20004;-77
2022/09/15 06:54:50;;;;;;;2.58;0.82;;;17.80;99.90;;;;;;6221536;23;20008;-77
2022/09/15 06:57:15;;;;;;;1.92;0.70;;;17.60;99.90;;;;;;6222178;23;20023;-79
2022/09/15 06:59:41;;;;;;;3.20;0.73;;;17.50;99.90;;;;;;6221689;23;20317;-79
2022/09/15 07:02:08;;;;;;;4.10;1.10;;;17.50;99.90;;;;;;6222267;23;20062;-77
2022/09/15 07:04:37;;;;;;;2.85;0.90;;;17.40;99.90;;;;;;6222321;23;20175;-76
2022/09/15 07:07:03;;;;;;;4.47;1.05;;;17.40;99.90;;;;;;6222697;23;20015;-77
2022/09/15 07:09:29;;;;;;;2.97;1.13;;;17.40;99.90;;;;;;6223021;23;20423;-80
2022/09/15 07:11:55;;;;;;;4.40;1.10;;;17.50;99.90;;;;;;6196301;23;20095;-79
2022/09/15 07:14:27;;;;;;;4.53;0.90;;;17.40;99.90;;;;;;6172290;23;19997;-77
2022/09/15 07:17:02;;;;;;;4.22;1.10;;;17.50;99.90;;;;;;6171148;23;20174;-78
2022/09/15 07:20:16;;;;;;;5.15;1.10;;;17.50;99.90;;;;;;6222806;23;20018;-77
2022/09/15 07:22:54;;;;;;;2.17;0.70;;;17.50;99.90;;;;;;6170646;23;20004;-77
2022/09/15 07:25:20;;;;;;;4.22;0.77;;;17.50;99.90;;;;;;6195697;23;20192;-80
2022/09/15 07:27:45;;;;;;;2.47;1.10;;;17.50;99.90;;;;;;6221173;23;20013;-79
2022/09/15 07:30:12;;;;;;;3.33;1.10;;;17.50;99.90;;;;;;6171054;23;20068;-78
2022/09/15 07:32:40;;;;;;;3.47;0.80;;;17.60;99.90;;;;;;6171002;23;20004;-78
2022/09/15 07:35:06;;;;;;;3.58;1.00;;;17.70;99.90;;;;;;6120912;23;20009;-75
2022/09/15 07:37:32;;;;;;;3.78;1.10;;;17.70;99.90;;;;;;6165029;23;20329;-78
2022/09/15 07:39:59;;;;;;;3.50;1.00;;;17.80;99.90;;;;;;6191074;23;20067;-78
2022/09/15 07:42:27;;;;;;;3.35;1.15;;;17.90;99.90;;;;;;6190193;23;20000;-78
2022/09/15 07:44:53;;;;;;;3.67;1.38;;;17.90;99.90;;;;;;6191627;23;20088;-77
2022/09/15 07:47:19;;;;;;;2.20;0.82;;;18.00;99.90;;;;;;6191968;23;20005;-79
2022/09/15 07:49:45;;;;;;;2.47;0.85;;;18.10;99.90;;;;;;6190964;23;20005;-78
2022/09/15 07:52:11;;;;;;;4.18;1.00;;;18.10;99.90;;;;;;6166366;23;20345;-78
2022/09/15 07:54:37;;;;;;;2.20;0.70;;;18.10;99.90;;;;;;6192558;23;20088;-78
2022/09/15 07:57:05;;;;;;;3.67;0.60;;;18.10;99.90;;;;;;6165252;23;20009;-77
2022/09/15 07:59:30;;;;;;;2.30;0.68;;;18.10;99.90;;;;;;6191436;23;20067;-79
2022/09/15 08:01:56;;;;;;;2.97;0.70;;;18.10;99.90;;;;;;6190687;23;20001;-77
2022/09/15 08:04:22;;;;;;;1.88;0.57;;;18.10;99.90;;;;;;6140256;23;20072;-77
2022/09/15 08:06:48;;;;;;;2.38;1.08;;;18.10;99.90;;;;;;6190754;23;20052;-77
2022/09/15 08:09:16;;;;;;;1.83;0.52;;;18.10;99.90;;;;;;6165053;23;20025;-76
2022/09/15 08:11:42;;;;;;;1.08;0.32;;;18.00;99.90;;;;;;6191048;23;20005;-77
2022/09/15 08:14:08;;;;;;;1.60;0.60;;;18.00;99.90;;;;;;6191574;23;20230;-76
2022/09/15 08:16:34;;;;;;;1.15;0.40;;;18.00;99.90;;;;;;6191572;23;20004;-78
2022/09/15 08:19:00;;;;;;;1.10;0.55;;;18.00;99.90;;;;;;6190673;23;20183;-77
2022/09/15 08:21:35;;;;;;;2.05;0.50;;;18.00;99.90;;;;;;6191408;23;20001;-77
2022/09/15 08:24:01;;;;;;;3.45;1.00;;;18.00;99.90;;;;;;6190782;23;20299;-78
2022/09/15 08:26:28;;;;;;;2.15;0.50;;;18.10;99.90;;;;;;6191205;23;20067;-78
2022/09/15 08:28:54;;;;;;;2.15;0.52;;;18.10;99.90;;;;;;6190826;23;20008;-78
2022/09/15 08:31:20;;;;;;;2.60;0.55;;;18.10;99.90;;;;;;6191345;23;20017;-77
2022/09/15 08:33:50;;;;;;;1.88;0.65;;;18.10;99.90;;;;;;6191264;23;20001;-79
2022/09/15 08:36:16;;;;;;;2.63;0.60;;;18.20;99.90;;;;;;6191296;23;20311;-76
2022/09/15 08:38:44;;;;;;;2.22;0.63;;;18.20;99.90;;;;;;6165000;23;20001;-77
2022/09/15 08:41:32;;;;;;;2.17;0.47;;;18.30;99.90;;;;;;6190939;23;20100;-79
2022/09/15 08:44:07;;;;;;;;;;;18.40;99.90;;;;;;6140638;23;20050;-78
2022/09/15 08:46:59;;;;;;;2.15;0.50;;;18.40;99.90;;;;;;6191141;23;19926;-77
2022/09/15 08:49:36;;;;;;;1.80;0.50;;;18.60;99.90;;;;;;6190873;23;20076;-79
2022/09/15 08:52:06;;;;;;;2.50;0.50;;;18.70;99.90;;;;;;6190873;23;20242;-77
2022/09/15 08:54:33;;;;;;;1.75;0.50;;;18.90;99.90;;;;;;6189248;23;20142;-77
2022/09/15 08:57:00;;;;;;;1.95;0.70;;;19.00;99.90;;;;;;6189938;23;20009;-76
2022/09/15 08:59:33;;;;;;;2.90;0.60;;;19.10;99.90;;;;;;6193289;23;20072;-76
2022/09/15 09:02:25;;;;;;;1.13;0.40;;;19.20;99.90;;;;;;6197877;23;20032;-76
2022/09/15 09:05:04;;;;;;;3.15;0.50;;;19.50;99.90;;;;;;6170849;23;20012;-77
2022/09/15 09:07:38;;;;;;;;;;;19.50;99.90;;;;;;6194666;23;20001;-77
2022/09/15 09:10:13;;;;;;;1.23;0.40;;;19.70;99.90;;;;;;6190501;23;19915;-76
2022/09/15 09:12:47;;;;;;;2.08;0.50;;;19.80;99.90;;;;;;6192765;23;20028;-76
2022/09/15 09:15:31;;;;;;;2.60;0.60;;;19.90;99.90;;;;;;6192894;23;20005;-76
2022/09/15 09:18:12;;;;;;;2.80;0.60;;;20.10;99.90;;;;;;6192394;23;20025;-75
2022/09/15 09:20:40;;;;;;;1.70;0.60;;;20.20;99.90;;;;;;6193826;23;20008;-77
2022/09/15 09:23:14;;;;;;;1.85;0.50;;;20.40;99.90;;;;;;6199576;23;20216;-76
2022/09/15 09:25:56;;;;;;;1.75;0.57;;;20.40;99.90;;;;;;6197261;23;20162;-76
2022/09/15 09:28:53;;;;;;;2.03;0.60;;;20.40;99.90;;;;;;6195922;23;20043;-76
2022/09/15 09:31:26;;;;;;;2.17;0.50;;;20.40;99.90;;;;;;6192948;23;20179;-77
2022/09/15 09:34:16;;;;;;;2.72;0.70;;;20.50;99.90;;;;;;6192306;23;20096;-75
2022/09/15 09:36:57;;;;;;;0.70;0.25;;;20.40;99.90;;;;;;6143418;23;20277;-75
2022/09/15 09:39:45;;;;;;;0.43;0.10;;;20.10;99.90;;;;;;6192086;23;20012;-76
2022/09/15 09:45:58;;;;;;;3.22;1.05;;;19.30;99.90;;;;;;6130422;23;20339;-76
2022/09/15 09:48:26;;;;;;;2.25;0.30;;;19.00;99.90;;;;;;6131200;23;20076;-75
2022/09/15 09:50:54;;;;;;;1.83;0.47;;;19.00;99.90;;;;;;6082010;23;20062;-76
2022/09/15 09:53:35;;;;;;;1.23;0.15;;;18.90;99.90;;;;;;6106028;23;20010;-75
2022/09/15 09:56:17;;;;;;;1.45;0.20;;;19.00;99.90;;;;;;6105853;23;20097;-73
2022/09/15 09:58:43;;;;;;;0.73;0.20;;;18.90;99.90;;;;;;6130946;23;20009;-75
2022/09/15 10:01:11;;;;;;;1.95;0.20;;;18.80;99.90;;;;;;6131044;23;20065;-77
2022/09/15 10:03:37;;;;;;;0.95;0.20;;;18.70;99.90;;;;;;6130708;23;20018;-75
2022/09/15 10:06:06;;;;;;;1.10;0.20;;;18.50;99.90;;;;;;6130214;23;20391;-74
2022/09/15 10:08:35;;;;;;;0.98;0.30;;;18.20;99.90;;;;;;6130718;23;20177;-76
2022/09/15 10:11:09;;;;;;;1.95;0.40;;;17.90;99.90;;;;;;6130318;23;20026;-75
2022/09/15 10:13:51;;;;;;;1.90;0.30;;;17.60;99.90;;;;;;6131349;23;20292;-75
2022/09/15 10:16:18;;;;;;;2.60;0.30;;;17.50;99.90;;;;;;6131126;23;20021;-76
2022/09/15 10:18:49;;;;;;;1.88;0.20;;;17.50;99.90;;;;;;6130083;23;20014;-75
2022/09/15 10:21:24;;;;;;;2.05;0.20;;;17.40;99.90;;;;;;6130689;23;20006;-75
2022/09/15 10:23:50;;;;;;;1.20;0.20;;;17.30;99.90;;;;;;6191807;23;20237;-76
2022/09/15 10:26:32;;;;;;;1.15;0.38;;;17.20;99.90;;;;;;6166301;23;20008;-78
2022/09/15 10:29:14;;;;;;;0.70;0.25;;;17.20;99.90;;;;;;6192075;23;20009;-76
2022/09/15 10:31:41;;;;;;;1.52;0.40;;;17.10;99.90;;;;;;6192845;23;20013;-76
2022/09/15 10:34:29;;;;;;;1.50;0.60;;;16.90;99.90;;;;;;6191981;23;19993;-76
2022/09/15 10:37:14;;;;;;;2.78;0.90;;;16.80;99.90;;;;;;6191876;23;20048;-76
2022/09/15 10:39:50;;;;;;;2.72;0.88;;;16.70;99.90;;;;;;6192793;23;20055;-78
2022/09/15 10:42:49;;;;;;;1.83;0.73;;;16.60;99.90;;;;;;6141926;23;20051;-77
2022/09/15 10:45:35;;;;;;;1.65;0.73;;;16.50;99.90;;;;;;6192471;23;20001;-74
2022/09/15 10:48:29;;;;;;;1.42;0.90;;;16.40;99.90;;;;;;6191739;23;20129;-75
2022/09/15 10:51:06;;;;;;;2.00;1.08;;;16.40;99.90;;;;;;6191913;23;20219;-75
2022/09/15 10:53:52;;;;;;;2.92;1.40;;;16.30;99.90;;;;;;6192360;23;20012;-76
2022/09/15 10:56:41;;;;;;;4.70;1.70;;;16.20;99.90;;;;;;6165958;23;20060;-75
2022/09/15 10:59:57;;;;;;;4.55;1.92;;;16.00;99.90;;;;;;6191251;23;20059;-74
2022/09/15 11:02:51;;;;;;;3.80;1.90;;;16.00;99.90;;;;;;6172268;23;20207;-73
2022/09/15 11:05:44;;;;;;;4.97;2.17;;;15.90;99.90;;;;;;6192116;23;20005;-74
2022/09/15 11:08:47;;;;;;;4.93;3.08;;;15.80;99.90;;;;;;6192425;23;20001;-75
2022/09/15 11:11:51;;;;;;;5.07;2.47;;;15.80;99.90;;;;;;6141936;23;20236;-76
2022/09/15 11:15:02;;;;;;;4.47;2.20;;;15.80;99.90;;;;;;6166237;23;20005;-75
2022/09/15 11:17:47;;;;;;;4.30;2.35;;;15.90;99.90;;;;;;6192324;23;20005;-75
2022/09/15 11:20:34;;;;;;;3.55;2.20;;;15.80;99.90;;;;;;6192479;23;20317;-74
2022/09/15 11:23:23;;;;;;;5.67;2.73;;;15.80;99.90;;;;;;6191449;23;20065;-77
2022/09/15 11:25:55;;;;;;;3.97;2.40;;;15.90;99.90;;;;;;6166232;23;20056;-79
2022/09/15 11:28:27;;;;;;;5.53;2.97;;;15.90;99.90;;;;;;6192473;23;20271;-78
2022/09/15 11:31:06;;;;;;;6.97;2.78;;;16.00;99.90;;;;;;6165952;23;20043;-77
2022/09/15 11:34:17;;;;;;;4.82;2.78;;;16.00;99.90;;;;;;6194298;23;19997;-78
2022/09/15 11:36:52;;;;;;;7.65;3.05;;;16.00;99.90;;;;;;6176700;23;20009;-77
2022/09/15 11:39:28;;;;;;;5.65;3.05;;;16.10;99.90;;;;;;6195840;23;20005;-76
2022/09/15 11:42:34;;;;;;;5.53;2.72;;;16.10;99.90;;;;;;6193380;23;19997;-76
2022/09/15 11:45:02;;;;;;;4.80;2.50;;;16.00;99.90;;;;;;6076514;23;20013;-76
2022/09/15 11:47:37;;;;;;;4.53;2.40;;;15.90;99.90;;;;;;6101712;23;20243;-77
2022/09/15 11:50:27;;;;;;;4.90;2.72;;;15.90;99.90;;;;;;6100940;23;20259;-77
2022/09/15 11:53:07;;;;;;;9.85;4.72;;;16.00;99.90;;;;;;6053111;23;20009;-76
2022/09/15 11:55:40;;;;;;;5.32;2.45;;;16.10;99.90;;;;;;6101335;23;20002;-77
2022/09/15 11:58:22;;;;;;;4.78;2.10;;;16.40;99.90;;;;;;6100852;23;20037;-74
2022/09/15 12:00:54;;;;;;;3.13;2.22;;;16.60;99.90;;;;;;6100666;23;20006;-76
2022/09/15 12:03:36;;;;;;;4.00;1.92;;;16.80;99.90;;;;;;6100931;23;20014;-76
2022/09/15 12:06:19;;;;;;;3.75;2.17;;;16.80;99.90;;;;;;6076717;23;20002;-77
2022/09/15 12:09:00;;;;;;;5.38;2.05;;;16.80;99.90;;;;;;6100682;23;20002;-74
2022/09/15 12:11:30;;;;;;;5.63;2.20;;;16.80;99.90;;;;;;6101541;23;20013;-76
2022/09/15 12:13:58;;;;;;;5.97;2.22;;;16.80;99.90;;;;;;6100981;23;20013;-76
2022/09/15 12:16:25;;;;;;;4.50;2.28;;;16.80;99.90;;;;;;6172378;23;20027;-77
2022/09/15 12:19:00;;;;;;;5.45;2.72;;;16.90;99.90;;;;;;6192384;23;20056;-77
2022/09/15 12:21:29;;;;;;;4.40;2.00;;;17.00;99.90;;;;;;6165936;23;20005;-76
2022/09/15 12:24:01;;;;;;;4.03;1.80;;;17.10;99.90;;;;;;6191647;23;20024;-75
2022/09/15 12:26:28;;;;;;;3.97;1.75;;;17.30;99.90;;;;;;6166379;23;20055;-76
2022/09/15 12:29:02;;;;;;;3.67;1.88;;;17.70;99.90;;;;;;6192039;23;20009;-74
2022/09/15 12:31:39;;;;;;;6.32;2.20;;;18.10;99.90;;;;;;6192477;23;20282;-78
2022/09/15 12:34:23;;;;;;;3.55;1.92;;;18.40;99.90;;;;;;6192002;23;20099;-78
2022/09/15 12:36:51;;;;;;;5.68;1.95;;;18.70;99.90;;;;;;6194018;23;20005;-76
2022/09/15 12:39:44;;;;;;;3.38;1.40;;;18.80;99.90;;;;;;6168803;23;20519;-75
2022/09/15 12:42:23;;;;;;;3.88;1.95;;;18.80;99.90;;;;;;6190881;23;20324;-76
2022/09/15 12:44:57;;;;;;;4.00;1.73;;;18.80;99.90;;;;;;6193883;23;20032;-76
2022/09/15 12:47:30;;;;;;;5.70;2.28;;;18.70;99.90;;;;;;6193583;23;19997;-76
2022/09/15 12:50:20;;;;;;;5.47;2.20;;;18.60;99.90;;;;;;6193781;23;20060;-76
2022/09/15 12:52:56;;;;;;;6.15;2.00;;;18.50;99.90;;;;;;6193811;23;19993;-77
2022/09/15 12:55:33;;;;;;;10.35;2.00;;;18.60;99.90;;;;;;6193955;23;20067;-76
2022/09/15 12:58:08;;;;;;;4.25;1.60;;;18.70;99.90;;;;;;6193748;23;19997;-76
2022/09/15 13:00:38;;;;;;;3.25;1.70;;;18.80;99.90;;;;;;6194079;23;20007;-77
2022/09/15 13:03:24;;;;;;;5.72;1.88;;;18.90;99.90;;;;;;6193316;23;20017;-74
2022/09/15 13:06:09;;;;;;;5.03;1.77;;;19.00;99.90;;;;;;6193266;23;20056;-76
2022/09/15 13:08:35;;;;;;;4.82;2.55;;;18.80;99.90;;;;;;6193828;23;20048;-74
2022/09/15 13:11:11;;;;;;;4.30;2.00;;;18.80;99.90;;;;;;6167460;23;20009;-74
2022/09/15 13:13:46;;;;;;;6.00;1.85;;;18.80;99.90;;;;;;6194150;23;19997;-76
2022/09/15 13:16:18;;;;;;;3.70;1.60;;;19.00;99.90;;;;;;6194229;23;19997;-75
2022/09/15 13:18:45;;;;;;;3.63;1.50;;;19.30;99.90;;;;;;6193344;23;20310;-76
2022/09/15 13:21:16;;;;;;;4.65;1.83;;;19.60;99.90;;;;;;6193861;23;20001;-76
2022/09/15 13:23:47;;;;;;;3.80;1.50;;;19.90;99.90;;;;;;6194075;23;20253;-75
2022/09/15 13:26:19;;;;;;;6.18;1.92;;;20.10;99.90;;;;;;6194820;23;20005;-76
2022/09/15 13:28:46;;;;;;;3.55;1.50;;;20.30;99.90;;;;;;6193820;23;20051;-76
2022/09/15 13:31:37;;;;;;;3.72;1.48;;;20.40;99.90;;;;;;6194046;23;20195;-75
2022/09/15 13:34:30;;;;;;;3.45;1.63;;;20.30;99.90;;;;;;6193241;23;20206;-76
2022/09/15 13:37:22;;;;;;;4.82;1.63;;;20.40;99.90;;;;;;6167718;23;20001;-76
2022/09/15 13:40:06;;;;;;;4.20;1.60;;;20.80;99.90;;;;;;6193573;23;20005;-74
2022/09/15 13:43:10;;;;;;;3.30;1.40;;;21.20;99.90;;;;;;6193477;23;20320;-76
2022/09/15 13:45:48;;;;;;;4.40;1.67;;;21.80;99.90;;;;;;6191351;23;20008;-75
2022/09/15 13:48:47;;;;;;;4.07;1.80;;;21.80;99.90;;;;;;6193589;23;20001;-75
2022/09/15 13:51:24;;;;;;;3.45;1.60;;;21.90;99.60;;;;;;6194532;23;20016;-75
2022/09/15 13:54:02;;;;;;;4.25;1.60;;;21.60;99.50;;;;;;6195025;23;20005;-74
2022/09/15 13:56:34;;;;;;;3.05;1.50;;;21.70;99.70;;;;;;6194312;23;20005;-76
2022/09/15 13:59:02;;;;;;;3.55;1.33;;;22.10;98.10;;;;;;6193379;23;19997;-77
2022/09/15 14:01:33;;;;;;;3.53;1.20;;;22.70;98.00;;;;;;6193426;23;20001;-75
2022/09/15 14:04:09;;;;;;;3.22;1.10;;;23.10;95.80;;;;;;6192986;23;20080;-75
2022/09/15 14:06:39;;;;;;;3.55;1.40;;;24.00;95.30;;;;;;6167557;23;20005;-76
2022/09/15 14:09:14;;;;;;;3.67;1.27;;;23.90;94.70;;;;;;6193040;23;20012;-78
2022/09/15 14:11:42;;;;;;;2.88;1.00;;;23.30;94.50;;;;;;6193606;23;20001;-76
2022/09/15 14:14:49;;;;;;;2.65;1.40;;;23.60;94.60;;;;;;6192283;23;19997;-75
2022/09/15 14:17:27;;;;;;;5.28;1.58;;;25.50;92.20;;;;;;6149107;23;20012;-76
2022/09/15 14:19:58;;;;;;;3.78;1.17;;;28.20;87.90;;;;;;6193103;23;20013;-75
2022/09/15 14:22:29;;;;;;;4.43;1.30;;;28.10;81.90;;;;;;6193368;23;20056;-75
2022/09/15 14:24:57;;;;;;;3.58;1.75;;;26.30;85.90;;;;;;6193372;23;20052;-76
2022/09/15 14:27:26;;;;;;;4.38;1.40;;;25.00;89.60;;;;;;6193412;23;20008;-76
2022/09/15 14:29:55;;;;;;;4.93;1.17;;;24.40;91.00;;;;;;6190970;23;20008;-76
2022/09/15 14:32:21;;;;;;;2.50;1.20;;;25.30;91.20;;;;;;6193498;23;19997;-75
2022/09/15 14:34:47;;;;;;;3.63;1.30;;;27.00;87.00;;;;;;6192258;23;20056;-74
2022/09/15 14:37:23;;;;;;;3.75;2.50;;;28.20;83.20;;;;;;6192975;23;19997;-76
2022/09/15 14:39:56;;;;;;;2.75;1.02;;;29.60;81.30;;;;;;6191600;23;20001;-75
2022/09/15 14:42:31;;;;;;;2.78;1.17;;;29.60;77.80;;;;;;6193003;23;19997;-76
2022/09/15 14:45:09;;;;;;;3.67;1.20;;;28.40;79.30;;;;;;6192499;23;20253;-75
2022/09/15 14:47:35;;;;;;;3.75;0.95;;;29.00;79.00;;;;;;6192944;23;20009;-74
2022/09/15 14:50:11;;;;;;;2.80;1.30;;;30.90;75.90;;;;;;6191720;23;20223;-76
2022/09/15 14:52:39;;;;;;;2.92;1.00;;;31.80;71.90;;;;;;6193063;23;20039;-74
2022/09/15 14:55:19;;;;;;;2.53;1.10;;;32.00;68.80;;;;;;6191571;23;20062;-74
2022/09/15 14:57:56;;;;;;;4.90;1.20;;;32.70;69.30;;;;;;6192626;23;20008;-74
2022/09/15 15:00:26;;;;;;;3.65;1.00;;;32.40;66.70;;;;;;6192643;23;20004;-74
2022/09/15 15:03:25;;;;;;;1.60;0.80;;;32.00;66.30;;;;;;6191766;23;20078;-74
2022/09/15 15:06:13;;;;;;;3.05;1.08;;;31.00;67.00;;;;;;6192534;23;20004;-75
2022/09/15 15:08:56;;;;;;;2.40;1.17;;;31.60;66.40;;;;;;6192536;23;20009;-73
2022/09/15 15:11:22;;;;;;;7.65;4.50;;;31.60;66.40;;;;;;6192584;23;20009;-75
2022/09/15 15:13:51;;;;;;;2.50;0.98;;;32.40;64.70;;;;;;6192022;23;20306;-75
2022/09/15 15:16:26;;;;;;;4.82;1.50;;;32.40;63.60;;;;;;6166129;23;20005;-77
2022/09/15 15:18:55;;;;;;;2.17;0.90;;;31.20;66.10;;;;;;6191743;23;20043;-76
2022/09/15 15:21:40;;;;;;;2.65;1.17;;;31.30;64.00;;;;;;6192702;23;20005;-75
2022/09/15 15:24:11;;;;;;;3.78;1.30;;;32.10;66.20;;;;;;6191718;23;20009;-75
2022/09/15 15:26:42;;;;;;;3.38;1.30;;;30.40;65.90;;;;;;6192468;23;20004;-73
2022/09/15 15:29:44;;;;;;;4.10;1.42;;;29.20;69.30;;;;;;6191813;23;20013;-76
2022/09/15 15:32:13;;;;;;;3.63;1.40;;;26.80;73.00;;;;;;6192526;23;20009;-76
2022/09/15 15:34:46;;;;;;;2.90;1.20;;;25.80;77.30;;;;;;6192445;23;19997;-75
2022/09/15 15:37:33;;;;;;;2.97;1.50;;;25.90;77.50;;;;;;6192343;23;20244;-76
2022/09/15 15:40:05;;;;;;;5.38;1.40;;;26.40;76.20;;;;;;6192060;23;20001;-75
2022/09/15 15:42:31;;;;;;;3.35;1.55;;;26.50;75.60;;;;;;6192750;23;20064;-77
2022/09/15 15:45:22;;;;;;;2.47;1.30;;;26.50;75.40;;;;;;6192201;23;19997;-77
2022/09/15 15:47:48;;;;;;;2.60;1.30;;;27.70;73.40;;;;;;6165997;23;20027;-75
2022/09/15 15:50:31;;;;;;;2.60;1.27;;;29.00;69.70;;;;;;6192444;23;20000;-80
2022/09/15 15:52:59;;;;;;;3.42;1.55;;;29.80;68.50;;;;;;6165636;23;20155;-76
2022/09/15 15:55:35;;;;;;;3.53;1.40;;;30.40;66.10;;;;;;6166317;23;20001;-75
2022/09/15 15:58:01;;;;;;;3.45;1.27;;;31.20;65.30;;;;;;6191810;23;20061;-77
2022/09/15 16:00:48;;;;;;;4.55;1.70;;;31.60;64.30;;;;;;6165096;23;20029;-75
2022/09/15 16:03:15;;;;;;;3.83;1.30;;;32.20;64.10;;;;;;6191841;23;20005;-75
2022/09/15 16:05:44;;;;;;;2.75;1.48;;;31.00;64.00;;;;;;6192404;23;20016;-75
2022/09/15 16:08:28;;;;;;;3.85;1.65;;;30.00;66.10;;;;;;6191980;23;20004;-76
2022/09/15 16:10:54;;;;;;;3.67;1.20;;;28.70;67.30;;;;;;6193132;23;20004;-74
2022/09/15 16:13:21;;;;;;;3.22;1.40;;;27.90;69.00;;;;;;6194470;23;20270;-75
2022/09/15 16:15:48;;;;;;;4.80;1.70;;;26.50;72.00;;;;;;6167347;23;20422;-76
2022/09/15 16:18:13;;;;;;;3.70;1.65;;;25.90;74.90;;;;;;6193889;23;20009;-75
2022/09/15 16:20:40;;;;;;;3.55;1.50;;;25.80;73.50;;;;;;6168127;23;20001;-74
2022/09/15 16:23:10;;;;;;;3.05;1.73;;;25.20;75.60;;;;;;6193556;23;20005;-76
2022/09/15 16:25:53;;;;;;;4.75;2.10;;;24.50;77.30;;;;;;6194409;23;20027;-76
2022/09/15 16:28:19;;;;;;;4.38;1.70;;;24.30;79.40;;;;;;6194482;23;20267;-75
2022/09/15 16:30:46;;;;;;;3.42;1.77;;;23.90;80.20;;;;;;6193730;23;19993;-76
2022/09/15 16:33:16;;;;;;;4.30;1.50;;;23.10;81.80;;;;;;6193476;23;20012;-75
2022/09/15 16:36:05;;;;;;;3.47;2.03;;;22.50;83.70;;;;;;6194062;23;20060;-75
2022/09/15 16:38:32;;;;;;;4.28;2.00;;;21.80;85.50;;;;;;6193978;23;20005;-75
2022/09/15 16:40:58;;;;;;;4.28;1.95;;;21.10;86.50;;;;;;6193658;23;20000;-75
2022/09/15 16:43:24;;;;;;;4.30;2.67;;;20.90;89.10;;;;;;6194046;23;20028;-75
2022/09/15 16:45:50;;;;;;;4.30;2.30;;;20.60;88.90;;;;;;6167006;23;19997;-76
2022/09/15 16:48:17;;;;;;;5.70;2.30;;;20.40;90.10;;;;;;6193816;23;20019;-75
2022/09/15 16:50:43;;;;;;;3.47;2.00;;;20.20;91.60;;;;;;6194391;23;20001;-77
2022/09/15 16:53:18;;;;;;;5.10;2.33;;;20.20;91.90;;;;;;6193820;23;20183;-75
2022/09/15 16:55:45;;;;;;;4.00;2.47;;;20.00;92.00;;;;;;6193302;23;19997;-76
2022/09/15 16:58:23;;;;;;;4.07;2.20;;;19.90;92.20;;;;;;6194201;23;20033;-75
2022/09/15 17:00:53;;;;;;;3.75;2.13;;;19.80;92.60;;;;;;6193245;23;20278;-76
2022/09/15 17:03:26;;;;;;;4.40;2.35;;;19.70;92.80;;;;;;6167226;23;20005;-75
2022/09/15 17:05:58;;;;;;;4.85;2.70;;;19.60;93.00;;;;;;6193033;23;20127;-75
2022/09/15 17:08:30;;;;;;;4.05;2.50;;;19.40;93.50;;;;;;6193662;23;20322;-76
2022/09/15 17:10:58;;;;;;;4.85;2.75;;;19.30;93.60;;;;;;6167370;23;20349;-76
2022/09/15 17:13:26;;;;;;;6.47;2.50;;;19.20;94.60;;;;;;6193780;23;20056;-75
2022/09/15 17:15:54;;;;;;;7.30;2.80;;;19.20;94.00;;;;;;6193144;23;19999;-75
2022/09/15 17:18:21;;;;;;;6.03;2.83;;;19.20;94.90;;;;;;6193639;23;20013;-74
2022/09/15 17:20:48;;;;;;;4.00;2.17;;;19.20;94.40;;;;;;6192924;23;20069;-74
2022/09/15 17:23:26;;;;;;;4.88;2.30;;;19.10;94.20;;;;;;6193489;23;20001;-77
2022/09/15 17:25:56;;;;;;;3.67;1.83;;;19.00;94.50;;;;;;6192928;23;20195;-76
2022/09/15 17:28:33;;;;;;;3.58;2.03;;;18.80;94.60;;;;;;6193531;23;20015;-76
2022/09/15 17:31:10;;;;;;;4.45;2.55;;;18.80;94.80;;;;;;6193321;23;19997;-77
2022/09/15 17:33:36;;;;;;;4.50;2.80;;;18.70;95.20;;;;;;6192331;23;20005;-78
2022/09/15 17:36:03;;;;;;;6.90;2.70;;;18.70;95.80;;;;;;6192721;23;20042;-77
2022/09/15 17:38:28;;;;;;;4.72;2.80;;;18.60;95.50;;;;;;6193545;23;20059;-76
2022/09/15 17:40:54;;;;;;;6.47;2.53;;;18.50;95.90;;;;;;6192820;23;20001;-76
2022/09/15 17:43:23;;;;;;;5.05;2.70;;;18.60;96.60;;;;;;6193821;23;20020;-78
2022/09/15 17:45:49;;;;;;;5.45;2.63;;;18.60;96.70;;;;;;6192501;23;20000;-76
2022/09/15 17:48:15;;;;;;;4.90;2.50;;;18.60;96.20;;;;;;6193524;23;20310;-77
2022/09/15 17:50:42;;;;;;;5.32;2.75;;;18.60;96.50;;;;;;6191919;23;20009;-77
2022/09/15 17:53:16;;;;;;;4.82;2.75;;;18.60;97.30;;;;;;6192853;23;20101;-76
2022/09/15 17:55:43;;;;;;;3.75;2.30;;;18.60;96.60;;;;;;6193096;23;20005;-76
2022/09/15 17:58:09;;;;;;;6.45;2.90;;;18.50;96.70;;;;;;6193839;23;20005;-77
2022/09/15 18:00:37;;;;;;;4.20;2.78;;;18.40;97.10;;;;;;6193301;23;20001;-76
2022/09/15 18:03:28;;;;;;;3.80;2.55;;;18.40;97.70;;;;;;6193211;23;20294;-76
2022/09/15 18:05:57;;;;;;;3.75;2.78;;;18.50;97.70;;;;;;6180038;23;20096;-76
2022/09/15 18:08:22;;;;;;;3.90;2.53;;;18.50;97.20;;;;;;6193774;23;20009;-76
2022/09/15 18:10:48;;;;;;;5.72;3.13;;;18.50;98.20;;;;;;6193022;23;20001;-76
2022/09/15 18:13:20;;;;;;;5.68;2.60;;;18.60;98.60;;;;;;6193419;23;20036;-76
2022/09/15 18:15:49;;;;;;;5.53;2.70;;;18.60;97.70;;;;;;6193502;23;20211;-76
2022/09/15 18:18:18;;;;;;;6.20;2.65;;;18.60;98.40;;;;;;6192815;23;20032;-76
2022/09/15 18:20:45;;;;;;;5.10;2.67;;;18.50;97.90;;;;;;6193245;23;20093;-75
2022/09/15 18:23:16;;;;;;;5.15;2.85;;;18.50;98.40;;;;;;6193429;23;20089;-76
2022/09/15 18:25:43;;;;;;;5.50;3.08;;;18.60;98.50;;;;;;6193838;23;20004;-76